createdAt,value
2023-03-11T00:00:27.221Z,0.00
2023-03-11T00:01:27.207Z,0.00
2023-03-11T00:02:27.205Z,0.00
2023-03-11T00:03:27.169Z,0.00
2023-03-11T00:04:27.132Z,0.00
2023-03-11T00:05:27.212Z,0.00
2023-03-11T00:06:27.183Z,0.00
2023-03-11T00:07:27.159Z,0.00
2023-03-11T00:08:27.110Z,0.00
2023-03-11T00:09:27.100Z,0.00
2023-03-11T00:10:29.893Z,0.00
2023-03-11T00:11:27.071Z,0.00
2023-03-11T00:12:27.130Z,0.00
2023-03-11T00:13:27.062Z,0.00
2023-03-11T00:14:27.066Z,0.00
2023-03-11T00:15:27.007Z,0.00
2023-03-11T00:16:28.130Z,0.00
2023-03-11T00:17:27.078Z,0.00
2023-03-11T00:18:27.111Z,0.00
2023-03-11T00:19:26.985Z,0.00
2023-03-11T00:20:26.950Z,0.00
2023-03-11T00:21:27.006Z,0.00
2023-03-11T00:22:26.942Z,0.00
2023-03-11T00:23:26.973Z,0.00
2023-03-11T00:24:26.918Z,0.00
2023-03-11T00:25:26.909Z,0.00
2023-03-11T00:26:26.898Z,0.00
2023-03-11T00:27:26.887Z,0.00
2023-03-11T00:28:27.895Z,0.00
2023-03-11T00:29:26.872Z,0.00
2023-03-11T00:30:26.880Z,0.00
2023-03-11T00:31:26.876Z,0.00
2023-03-11T00:32:26.852Z,0.00
2023-03-11T00:33:26.863Z,0.00
2023-03-11T00:34:26.793Z,0.00
2023-03-11T00:35:26.798Z,0.00
2023-03-11T00:36:26.798Z,0.00
2023-03-11T00:37:26.787Z,0.00
2023-03-11T00:38:26.845Z,0.00
2023-03-11T00:39:26.767Z,0.00
2023-03-11T00:40:27.585Z,0.00
2023-03-11T00:41:26.754Z,0.00
2023-03-11T00:42:26.729Z,0.00
2023-03-11T00:43:26.698Z,0.00
2023-03-11T00:44:26.804Z,0.00
2023-03-11T00:45:26.668Z,0.00
2023-03-11T00:46:26.748Z,0.00
2023-03-11T00:47:26.652Z,0.00
2023-03-11T00:48:26.647Z,0.00
2023-03-11T00:49:26.705Z,0.00
2023-03-11T00:50:26.621Z,0.00
2023-03-11T00:51:26.648Z,0.00
2023-03-11T00:52:26.593Z,0.00
2023-03-11T00:53:26.609Z,0.00
2023-03-11T00:54:26.580Z,0.00
2023-03-11T00:55:26.642Z,0.00
2023-03-11T00:56:26.582Z,0.00
2023-03-11T00:57:26.583Z,0.00
2023-03-11T00:58:26.556Z,0.00
2023-03-11T00:59:26.562Z,0.00
2023-03-11T01:00:26.611Z,0.00
2023-03-11T01:01:26.560Z,0.00
2023-03-11T01:02:26.513Z,0.00
2023-03-11T01:03:26.476Z,0.00
2023-03-11T01:04:26.495Z,0.00
2023-03-11T01:05:26.523Z,0.00
2023-03-11T01:06:35.801Z,0.00
2023-03-11T01:07:26.452Z,0.00
2023-03-11T01:08:26.474Z,0.00
2023-03-11T01:09:26.409Z,0.00
2023-03-11T01:10:26.392Z,0.00
2023-03-11T01:11:27.436Z,0.00
2023-03-11T01:12:26.372Z,0.00
2023-03-11T01:13:26.370Z,0.00
2023-03-11T01:14:26.351Z,0.00
2023-03-11T01:15:26.357Z,0.00
2023-03-11T01:16:26.389Z,0.00
2023-03-11T01:17:26.334Z,0.00
2023-03-11T01:18:26.304Z,0.00
2023-03-11T01:19:26.314Z,0.00
2023-03-11T01:20:26.315Z,0.00
2023-03-11T01:21:26.333Z,0.00
2023-03-11T01:22:26.285Z,0.00
2023-03-11T01:23:26.293Z,0.00
2023-03-11T01:24:26.249Z,0.00
2023-03-11T01:25:26.237Z,0.00
2023-03-11T01:26:26.251Z,0.00
2023-03-11T01:27:26.242Z,0.00
2023-03-11T01:28:26.231Z,0.00
2023-03-11T01:29:26.201Z,0.00
2023-03-11T01:30:26.188Z,0.00
2023-03-11T01:31:26.271Z,0.00
2023-03-11T01:32:26.280Z,0.00
2023-03-11T01:33:26.147Z,0.00
2023-03-11T01:34:26.163Z,0.00
2023-03-11T01:35:26.275Z,0.00
2023-03-11T01:36:26.113Z,0.00
2023-03-11T01:37:26.116Z,0.00
2023-03-11T01:38:26.099Z,0.00
2023-03-11T01:39:26.078Z,0.00
2023-03-11T01:40:26.066Z,0.00
2023-03-11T01:41:26.039Z,0.00
2023-03-11T01:42:26.020Z,0.00
2023-03-11T01:43:26.107Z,0.00
2023-03-11T01:44:26.020Z,0.00
2023-03-11T01:45:25.983Z,0.00
2023-03-11T01:46:27.035Z,0.00
2023-03-11T01:47:25.963Z,0.00
2023-03-11T01:48:25.992Z,0.00
2023-03-11T01:49:26.127Z,0.00
2023-03-11T01:50:25.935Z,0.00
2023-03-11T01:51:25.951Z,0.00
2023-03-11T01:52:25.939Z,0.00
2023-03-11T01:53:25.926Z,0.00
2023-03-11T01:54:25.953Z,0.00
2023-03-11T01:55:25.892Z,0.00
2023-03-11T01:56:25.874Z,0.00
2023-03-11T01:57:25.915Z,0.00
2023-03-11T01:58:25.842Z,0.00
2023-03-11T01:59:25.909Z,0.00
2023-03-11T02:00:25.842Z,0.00
2023-03-11T02:01:25.850Z,0.00
2023-03-11T02:02:25.807Z,0.00
2023-03-11T02:03:25.797Z,0.00
2023-03-11T02:04:25.829Z,0.00
2023-03-11T02:05:25.785Z,0.00
2023-03-11T02:06:25.769Z,0.00
2023-03-11T02:07:25.792Z,0.00
2023-03-11T02:08:25.778Z,0.00
2023-03-11T02:09:25.784Z,0.00
2023-03-11T02:10:25.758Z,0.00
2023-03-11T02:11:25.712Z,0.00
2023-03-11T02:12:25.703Z,0.00
2023-03-11T02:13:25.708Z,0.00
2023-03-11T02:14:25.684Z,0.00
2023-03-11T02:15:25.687Z,0.00
2023-03-11T02:16:25.748Z,0.00
2023-03-11T02:17:25.658Z,0.00
2023-03-11T02:18:25.659Z,0.00
2023-03-11T02:19:25.616Z,0.00
2023-03-11T02:20:25.661Z,0.00
2023-03-11T02:21:25.587Z,0.00
2023-03-11T02:22:25.629Z,0.00
2023-03-11T02:23:25.576Z,0.00
2023-03-11T02:24:25.584Z,0.00
2023-03-11T02:25:25.554Z,0.00
2023-03-11T02:26:25.628Z,0.00
2023-03-11T02:27:25.555Z,0.00
2023-03-11T02:28:25.531Z,0.00
2023-03-11T02:29:25.538Z,0.00
2023-03-11T02:30:25.853Z,0.00
2023-03-11T02:31:25.693Z,0.00
2023-03-11T02:32:25.533Z,0.00
2023-03-11T02:33:25.482Z,0.00
2023-03-11T02:34:25.529Z,0.00
2023-03-11T02:35:25.470Z,0.00
2023-03-11T02:36:25.433Z,0.00
2023-03-11T02:37:25.443Z,0.00
2023-03-11T02:38:25.585Z,0.00
2023-03-11T02:39:25.712Z,0.00
2023-03-11T02:40:25.428Z,0.00
2023-03-11T02:41:25.424Z,0.00
2023-03-11T02:42:25.421Z,0.00
2023-03-11T02:43:25.375Z,0.00
2023-03-11T02:44:25.408Z,0.00
2023-03-11T02:45:25.351Z,0.00
2023-03-11T02:46:25.371Z,0.00
2023-03-11T02:47:25.348Z,0.00
2023-03-11T02:48:25.305Z,0.00
2023-03-11T02:49:25.284Z,0.00
2023-03-11T02:50:25.270Z,0.00
2023-03-11T02:51:25.321Z,0.00
2023-03-11T02:52:25.257Z,0.00
2023-03-11T02:53:25.266Z,0.00
2023-03-11T02:54:25.285Z,0.00
2023-03-11T02:55:25.228Z,0.00
2023-03-11T02:56:25.218Z,0.00
2023-03-11T02:57:25.195Z,0.00
2023-03-11T02:58:25.206Z,0.00
2023-03-11T02:59:25.193Z,0.00
2023-03-11T03:00:25.186Z,0.00
2023-03-11T03:01:25.171Z,0.00
2023-03-11T03:02:25.145Z,0.00
2023-03-11T03:03:25.133Z,0.00
2023-03-11T03:04:25.294Z,0.00
2023-03-11T03:05:25.129Z,0.00
2023-03-11T03:06:25.113Z,0.00
2023-03-11T03:07:25.089Z,0.00
2023-03-11T03:08:25.103Z,0.00
2023-03-11T03:09:25.066Z,0.00
2023-03-11T03:10:25.057Z,0.00
2023-03-11T03:11:25.031Z,0.00
2023-03-11T03:12:25.030Z,0.00
2023-03-11T03:13:25.086Z,0.00
2023-03-11T03:14:25.007Z,0.00
2023-03-11T03:15:24.996Z,0.00
2023-03-11T03:16:25.054Z,0.00
2023-03-11T03:17:25.052Z,0.00
2023-03-11T03:18:24.951Z,0.00
2023-03-11T03:19:25.005Z,0.00
2023-03-11T03:20:24.920Z,0.00
2023-03-11T03:21:24.971Z,0.00
2023-03-11T03:22:24.934Z,0.00
2023-03-11T03:23:24.925Z,0.00
2023-03-11T03:24:24.930Z,0.00
2023-03-11T03:25:25.526Z,0.00
2023-03-11T03:26:24.900Z,0.00
2023-03-11T03:27:24.871Z,0.00
2023-03-11T03:28:24.869Z,0.00
2023-03-11T03:29:24.866Z,0.00
2023-03-11T03:30:24.836Z,0.00
2023-03-11T03:31:24.873Z,0.00
2023-03-11T03:32:24.813Z,0.00
2023-03-11T03:33:24.818Z,0.00
2023-03-11T03:34:25.357Z,0.00
2023-03-11T03:35:24.843Z,0.00
2023-03-11T03:36:24.806Z,0.00
2023-03-11T03:37:24.734Z,0.00
2023-03-11T03:38:24.748Z,0.00
2023-03-11T03:39:24.763Z,0.00
2023-03-11T03:40:24.807Z,0.00
2023-03-11T03:41:24.735Z,0.00
2023-03-11T03:42:24.716Z,0.00
2023-03-11T03:43:24.688Z,0.00
2023-03-11T03:44:24.711Z,0.00
2023-03-11T03:45:24.656Z,0.00
2023-03-11T03:46:24.817Z,0.00
2023-03-11T03:47:24.634Z,0.00
2023-03-11T03:48:24.635Z,0.00
2023-03-11T03:49:24.654Z,0.00
2023-03-11T03:50:24.587Z,0.00
2023-03-11T03:51:24.662Z,0.00
2023-03-11T03:52:24.586Z,0.00
2023-03-11T03:53:24.602Z,0.00
2023-03-11T03:54:24.621Z,0.00
2023-03-11T03:55:24.561Z,0.00
2023-03-11T03:56:24.542Z,0.00
2023-03-11T03:57:25.880Z,0.00
2023-03-11T03:58:24.542Z,0.00
2023-03-11T03:59:24.514Z,0.00
2023-03-11T04:00:25.882Z,0.00
2023-03-11T04:01:24.480Z,0.00
2023-03-11T04:02:24.540Z,0.00
2023-03-11T04:03:24.499Z,0.00
2023-03-11T04:04:24.465Z,0.00
2023-03-11T04:05:24.460Z,0.00
2023-03-11T04:06:24.429Z,0.00
2023-03-11T04:07:24.478Z,0.00
2023-03-11T04:08:24.391Z,0.00
2023-03-11T04:09:24.388Z,0.00
2023-03-11T04:10:24.374Z,0.00
2023-03-11T04:11:24.394Z,0.00
2023-03-11T04:12:24.363Z,0.00
2023-03-11T04:13:24.376Z,0.00
2023-03-11T04:14:24.334Z,0.00
2023-03-11T04:15:24.373Z,0.00
2023-03-11T04:16:24.365Z,0.00
2023-03-11T04:17:24.298Z,0.00
2023-03-11T04:18:24.349Z,0.00
2023-03-11T04:19:24.282Z,0.00
2023-03-11T04:20:24.275Z,0.00
2023-03-11T04:21:24.316Z,0.00
2023-03-11T04:22:24.244Z,0.00
2023-03-11T04:23:24.241Z,0.00
2023-03-11T04:24:24.296Z,0.00
2023-03-11T04:25:24.233Z,0.00
2023-03-11T04:26:24.240Z,0.00
2023-03-11T04:27:24.195Z,0.00
2023-03-11T04:28:24.181Z,0.00
2023-03-11T04:29:24.214Z,0.00
2023-03-11T04:30:24.152Z,0.00
2023-03-11T04:31:24.162Z,0.00
2023-03-11T04:32:24.163Z,0.00
2023-03-11T04:33:24.100Z,0.00
2023-03-11T04:34:24.167Z,0.00
2023-03-11T04:35:24.124Z,0.00
2023-03-11T04:36:24.081Z,0.00
2023-03-11T04:37:24.084Z,0.00
2023-03-11T04:38:24.068Z,0.00
2023-03-11T04:39:24.075Z,0.00
2023-03-11T04:40:24.128Z,0.00
2023-03-11T04:41:24.055Z,0.00
2023-03-11T04:42:24.030Z,0.00
2023-03-11T04:43:24.022Z,0.00
2023-03-11T04:44:24.013Z,0.00
2023-03-11T04:45:24.028Z,0.00
2023-03-11T04:46:24.139Z,0.00
2023-03-11T04:47:23.989Z,0.00
2023-03-11T04:48:23.950Z,0.00
2023-03-11T04:49:23.983Z,0.00
2023-03-11T04:50:23.957Z,0.00
2023-03-11T04:51:23.933Z,0.00
2023-03-11T04:52:23.916Z,0.00
2023-03-11T04:53:23.880Z,0.00
2023-03-11T04:54:23.915Z,0.00
2023-03-11T04:55:23.861Z,0.00
2023-03-11T04:56:23.897Z,0.00
2023-03-11T04:57:23.835Z,0.00
2023-03-11T04:58:23.854Z,0.00
2023-03-11T04:59:23.820Z,0.00
2023-03-11T05:00:23.827Z,0.00
2023-03-11T05:01:23.896Z,0.00
2023-03-11T05:02:23.808Z,0.00
2023-03-11T05:03:23.831Z,0.00
2023-03-11T05:04:23.799Z,0.00
2023-03-11T05:05:23.745Z,0.00
2023-03-11T05:06:23.783Z,0.00
2023-03-11T05:07:23.741Z,0.00
2023-03-11T05:08:23.742Z,0.00
2023-03-11T05:09:23.703Z,0.00
2023-03-11T05:10:23.719Z,0.00
2023-03-11T05:11:23.693Z,0.00
2023-03-11T05:12:23.685Z,0.00
2023-03-11T05:13:23.656Z,0.00
2023-03-11T05:14:23.703Z,0.00
2023-03-11T05:15:23.634Z,0.00
2023-03-11T05:16:23.717Z,0.00
2023-03-11T05:17:23.649Z,0.00
2023-03-11T05:18:23.615Z,0.00
2023-03-11T05:19:23.603Z,0.00
2023-03-11T05:20:23.597Z,0.00
2023-03-11T05:21:23.598Z,0.00
2023-03-11T05:22:23.572Z,0.00
2023-03-11T05:23:23.519Z,0.00
2023-03-11T05:24:23.680Z,0.00
2023-03-11T05:25:23.514Z,0.00
2023-03-11T05:26:23.540Z,0.00
2023-03-11T05:27:23.516Z,0.00
2023-03-11T05:28:23.499Z,0.00
2023-03-11T05:29:23.474Z,0.00
2023-03-11T05:30:23.467Z,0.00
2023-03-11T05:31:23.489Z,0.00
2023-03-11T05:32:23.490Z,0.00
2023-03-11T05:33:23.473Z,0.00
2023-03-11T05:34:23.439Z,0.00
2023-03-11T05:35:23.421Z,0.00
2023-03-11T05:36:23.448Z,0.00
2023-03-11T05:37:23.397Z,0.00
2023-03-11T05:38:23.391Z,0.00
2023-03-11T05:39:23.364Z,0.00
2023-03-11T05:40:23.335Z,0.00
2023-03-11T05:41:23.513Z,0.00
2023-03-11T05:42:23.378Z,0.00
2023-03-11T05:43:23.322Z,0.00
2023-03-11T05:44:23.324Z,0.00
2023-03-11T05:45:23.346Z,0.00
2023-03-11T05:46:23.396Z,0.00
2023-03-11T05:47:23.334Z,0.00
2023-03-11T05:48:23.290Z,0.00
2023-03-11T05:49:23.249Z,0.00
2023-03-11T05:50:23.234Z,0.00
2023-03-11T05:51:23.265Z,0.00
2023-03-11T05:52:23.260Z,0.00
2023-03-11T05:53:23.243Z,0.00
2023-03-11T05:54:23.227Z,0.00
2023-03-11T05:55:23.240Z,0.00
2023-03-11T05:56:23.219Z,0.00
2023-03-11T05:57:23.222Z,0.00
2023-03-11T05:58:23.221Z,0.00
2023-03-11T05:59:23.186Z,0.00
2023-03-11T06:00:23.147Z,0.00
2023-03-11T06:01:23.114Z,0.00
2023-03-11T06:02:23.124Z,0.00
2023-03-11T06:03:23.099Z,0.00
2023-03-11T06:04:23.245Z,0.00
2023-03-11T06:05:23.099Z,0.00
2023-03-11T06:06:23.075Z,5.62
2023-03-11T06:07:23.101Z,5.62
2023-03-11T06:08:23.056Z,5.62
2023-03-11T06:09:23.055Z,5.62
2023-03-11T06:10:23.069Z,5.62
2023-03-11T06:11:23.016Z,5.62
2023-03-11T06:12:23.069Z,5.62
2023-03-11T06:13:23.004Z,5.62
2023-03-11T06:14:22.999Z,5.62
2023-03-11T06:15:23.004Z,5.62
2023-03-11T06:16:22.994Z,5.62
2023-03-11T06:17:22.942Z,5.62
2023-03-11T06:18:23.040Z,5.62
2023-03-11T06:19:23.381Z,5.62
2023-03-11T06:20:22.932Z,5.62
2023-03-11T06:21:22.900Z,5.62
2023-03-11T06:22:22.913Z,5.62
2023-03-11T06:23:22.988Z,5.62
2023-03-11T06:24:22.933Z,5.62
2023-03-11T06:25:22.899Z,5.62
2023-03-11T06:26:22.874Z,11.25
2023-03-11T06:27:22.851Z,11.25
2023-03-11T06:28:23.334Z,11.25
2023-03-11T06:29:22.872Z,11.25
2023-03-11T06:30:22.809Z,5.62
2023-03-11T06:31:22.881Z,11.25
2023-03-11T06:32:22.836Z,11.25
2023-03-11T06:33:22.821Z,11.25
2023-03-11T06:34:22.787Z,11.25
2023-03-11T06:35:22.752Z,11.25
2023-03-11T06:36:22.759Z,11.25
2023-03-11T06:37:22.729Z,11.25
2023-03-11T06:38:22.728Z,16.88
2023-03-11T06:39:22.766Z,16.88
2023-03-11T06:40:22.690Z,16.88
2023-03-11T06:41:22.680Z,16.88
2023-03-11T06:42:22.733Z,22.50
2023-03-11T06:43:22.652Z,22.50
2023-03-11T06:44:22.722Z,22.50
2023-03-11T06:45:22.636Z,28.12
2023-03-11T06:46:22.720Z,28.12
2023-03-11T06:47:22.667Z,33.75
2023-03-11T06:48:22.649Z,33.75
2023-03-11T06:49:22.671Z,33.75
2023-03-11T06:50:22.691Z,39.38
2023-03-11T06:51:22.567Z,39.38
2023-03-11T06:52:22.594Z,45.00
2023-03-11T06:53:22.549Z,50.62
2023-03-11T06:54:22.551Z,50.62
2023-03-11T06:55:22.621Z,50.62
2023-03-11T06:56:22.514Z,50.62
2023-03-11T06:57:22.505Z,50.62
2023-03-11T06:58:22.522Z,56.25
2023-03-11T06:59:22.478Z,56.25
2023-03-11T07:00:22.490Z,56.25
2023-03-11T07:01:22.571Z,50.62
2023-03-11T07:02:22.447Z,50.62
2023-03-11T07:03:22.436Z,56.25
2023-03-11T07:04:22.512Z,56.25
2023-03-11T07:05:22.439Z,56.25
2023-03-11T07:06:22.452Z,50.62
2023-03-11T07:07:22.402Z,50.62
2023-03-11T07:08:22.375Z,50.62
2023-03-11T07:09:22.380Z,50.62
2023-03-11T07:10:22.388Z,50.62
2023-03-11T07:11:22.405Z,50.62
2023-03-11T07:12:22.952Z,50.62
2023-03-11T07:13:22.317Z,56.25
2023-03-11T07:14:23.181Z,56.25
2023-03-11T07:15:22.303Z,61.88
2023-03-11T07:16:22.315Z,67.50
2023-03-11T07:17:22.316Z,67.50
2023-03-11T07:18:22.249Z,73.12
2023-03-11T07:19:22.229Z,78.75
2023-03-11T07:20:22.303Z,78.75
2023-03-11T07:21:22.212Z,84.38
2023-03-11T07:22:22.240Z,90.00
2023-03-11T07:23:22.855Z,95.62
2023-03-11T07:24:22.187Z,106.88
2023-03-11T07:25:22.276Z,106.88
2023-03-11T07:26:22.167Z,140.62
2023-03-11T07:27:22.164Z,281.25
2023-03-11T07:28:22.199Z,326.25
2023-03-11T07:29:22.119Z,343.12
2023-03-11T07:30:22.127Z,360.00
2023-03-11T07:31:22.125Z,354.38
2023-03-11T07:32:22.133Z,360.00
2023-03-11T07:33:22.120Z,354.38
2023-03-11T07:34:22.065Z,371.25
2023-03-11T07:35:22.053Z,376.88
2023-03-11T07:36:22.050Z,360.00
2023-03-11T07:37:22.040Z,382.50
2023-03-11T07:38:22.009Z,163.12
2023-03-11T07:39:22.040Z,230.62
2023-03-11T07:40:21.982Z,230.62
2023-03-11T07:41:21.983Z,191.25
2023-03-11T07:42:22.002Z,230.62
2023-03-11T07:43:21.945Z,236.25
2023-03-11T07:44:21.987Z,185.62
2023-03-11T07:45:21.967Z,213.75
2023-03-11T07:46:22.042Z,185.62
2023-03-11T07:47:21.901Z,191.25
2023-03-11T07:48:21.904Z,185.62
2023-03-11T07:49:21.931Z,219.38
2023-03-11T07:50:21.881Z,213.75
2023-03-11T07:51:21.886Z,163.12
2023-03-11T07:52:21.848Z,168.75
2023-03-11T07:53:21.842Z,135.00
2023-03-11T07:54:21.861Z,135.00
2023-03-11T07:55:21.873Z,129.38
2023-03-11T07:56:21.818Z,129.38
2023-03-11T07:57:21.806Z,123.75
2023-03-11T07:58:21.778Z,123.75
2023-03-11T07:59:21.781Z,123.75
2023-03-11T08:00:21.808Z,123.75
2023-03-11T08:01:21.747Z,129.38
2023-03-11T08:02:21.779Z,129.38
2023-03-11T08:03:21.821Z,135.00
2023-03-11T08:04:21.721Z,140.62
2023-03-11T08:05:21.716Z,151.88
2023-03-11T08:06:21.743Z,185.62
2023-03-11T08:07:21.692Z,247.50
2023-03-11T08:08:21.681Z,247.50
2023-03-11T08:09:21.669Z,264.38
2023-03-11T08:10:21.644Z,196.88
2023-03-11T08:11:21.669Z,151.88
2023-03-11T08:12:21.636Z,157.50
2023-03-11T08:13:21.632Z,421.88
2023-03-11T08:14:21.619Z,438.75
2023-03-11T08:15:21.626Z,405.00
2023-03-11T08:16:21.636Z,219.38
2023-03-11T08:17:21.575Z,450.00
2023-03-11T08:18:21.581Z,444.38
2023-03-11T08:19:21.546Z,461.25
2023-03-11T08:20:21.539Z,472.50
2023-03-11T08:21:21.557Z,315.00
2023-03-11T08:22:21.534Z,433.12
2023-03-11T08:23:21.539Z,410.62
2023-03-11T08:24:21.506Z,303.75
2023-03-11T08:25:21.492Z,196.88
2023-03-11T08:26:21.471Z,208.12
2023-03-11T08:27:21.501Z,225.00
2023-03-11T08:28:21.458Z,196.88
2023-03-11T08:29:21.426Z,326.25
2023-03-11T08:30:21.434Z,292.50
2023-03-11T08:31:21.477Z,241.88
2023-03-11T08:32:21.472Z,202.50
2023-03-11T08:33:21.397Z,213.75
2023-03-11T08:34:21.382Z,208.12
2023-03-11T08:35:21.374Z,208.12
2023-03-11T08:36:21.371Z,281.25
2023-03-11T08:37:24.041Z,281.25
2023-03-11T08:38:21.371Z,331.88
2023-03-11T08:39:21.315Z,326.25
2023-03-11T08:40:21.339Z,270.00
2023-03-11T08:41:21.312Z,360.00
2023-03-11T08:42:21.284Z,320.62
2023-03-11T08:43:21.317Z,298.12
2023-03-11T08:44:21.261Z,264.38
2023-03-11T08:45:21.255Z,236.25
2023-03-11T08:46:21.264Z,219.38
2023-03-11T08:47:21.258Z,253.12
2023-03-11T08:48:21.223Z,264.38
2023-03-11T08:49:21.239Z,303.75
2023-03-11T08:50:21.207Z,331.88
2023-03-11T08:51:21.192Z,270.00
2023-03-11T08:52:21.184Z,241.88
2023-03-11T08:53:21.185Z,264.38
2023-03-11T08:54:21.187Z,275.62
2023-03-11T08:55:21.139Z,258.75
2023-03-11T08:56:21.118Z,236.25
2023-03-11T08:57:21.138Z,253.12
2023-03-11T08:58:21.104Z,230.62
2023-03-11T08:59:21.118Z,275.62
2023-03-11T09:00:21.090Z,264.38
2023-03-11T09:01:21.083Z,264.38
2023-03-11T09:02:21.079Z,258.75
2023-03-11T09:03:21.047Z,247.50
2023-03-11T09:04:21.079Z,343.12
2023-03-11T09:05:21.030Z,517.50
2023-03-11T09:06:21.013Z,309.38
2023-03-11T09:07:21.013Z,360.00
2023-03-11T09:08:20.986Z,433.12
2023-03-11T09:09:20.981Z,478.12
2023-03-11T09:10:21.049Z,365.62
2023-03-11T09:11:20.962Z,298.12
2023-03-11T09:12:20.942Z,315.00
2023-03-11T09:13:21.127Z,270.00
2023-03-11T09:14:20.930Z,545.62
2023-03-11T09:15:20.956Z,427.50
2023-03-11T09:16:20.962Z,506.25
2023-03-11T09:17:20.925Z,540.00
2023-03-11T09:18:20.867Z,354.38
2023-03-11T09:19:20.867Z,399.38
2023-03-11T09:20:20.868Z,315.00
2023-03-11T09:21:20.875Z,298.12
2023-03-11T09:22:21.001Z,309.38
2023-03-11T09:23:20.840Z,399.38
2023-03-11T09:24:20.836Z,433.12
2023-03-11T09:25:20.822Z,303.75
2023-03-11T09:26:21.035Z,275.62
2023-03-11T09:27:20.798Z,315.00
2023-03-11T09:28:20.780Z,264.38
2023-03-11T09:29:20.819Z,258.75
2023-03-11T09:30:20.767Z,253.12
2023-03-11T09:31:20.949Z,270.00
2023-03-11T09:32:20.819Z,281.25
2023-03-11T09:33:20.733Z,264.38
2023-03-11T09:34:20.718Z,247.50
2023-03-11T09:35:20.869Z,230.62
2023-03-11T09:36:20.718Z,219.38
2023-03-11T09:37:20.716Z,219.38
2023-03-11T09:38:20.696Z,219.38
2023-03-11T09:39:20.690Z,230.62
2023-03-11T09:40:20.672Z,253.12
2023-03-11T09:41:20.656Z,270.00
2023-03-11T09:42:20.678Z,331.88
2023-03-11T09:43:20.830Z,376.88
2023-03-11T09:44:20.630Z,281.25
2023-03-11T09:45:20.595Z,258.75
2023-03-11T09:46:20.654Z,253.12
2023-03-11T09:47:20.562Z,219.38
2023-03-11T09:48:22.676Z,208.12
2023-03-11T09:49:20.531Z,202.50
2023-03-11T09:50:20.556Z,191.25
2023-03-11T09:51:21.558Z,185.62
2023-03-11T09:52:22.291Z,185.62
2023-03-11T09:53:22.062Z,180.00
2023-03-11T09:54:20.774Z,180.00
2023-03-11T09:55:21.439Z,196.88
2023-03-11T10:00:07.389Z,185.62
2023-03-11T10:01:07.505Z,202.50
2023-03-11T10:02:07.528Z,185.62
2023-03-11T10:03:07.596Z,185.62
2023-03-11T10:04:07.294Z,191.25
2023-03-11T10:05:07.250Z,196.88
2023-03-11T10:06:07.260Z,208.12
2023-03-11T10:07:07.238Z,202.50
2023-03-11T10:08:07.184Z,185.62
2023-03-11T10:09:07.184Z,191.25
2023-03-11T10:10:07.194Z,196.88
2023-03-11T10:11:07.157Z,230.62
2023-03-11T10:12:07.138Z,348.75
2023-03-11T10:13:07.141Z,292.50
2023-03-11T10:14:07.206Z,292.50
2023-03-11T10:15:07.541Z,225.00
2023-03-11T10:16:07.130Z,219.38
2023-03-11T10:17:07.068Z,225.00
2023-03-11T10:18:07.063Z,247.50
2023-03-11T10:19:07.121Z,309.38
2023-03-11T10:20:07.039Z,405.00
2023-03-11T10:21:07.056Z,275.62
2023-03-11T10:22:07.034Z,326.25
2023-03-11T10:23:07.003Z,495.00
2023-03-11T10:24:07.022Z,753.75
2023-03-11T10:25:06.981Z,337.50
2023-03-11T10:26:07.111Z,601.88
2023-03-11T10:27:06.953Z,286.88
2023-03-11T10:28:06.936Z,270.00
2023-03-11T10:29:06.929Z,275.62
2023-03-11T10:30:06.932Z,270.00
2023-03-11T10:31:06.895Z,258.75
2023-03-11T10:32:06.928Z,275.62
2023-03-11T10:33:06.877Z,286.88
2023-03-11T10:34:06.863Z,444.38
2023-03-11T10:35:06.848Z,410.62
2023-03-11T10:36:06.856Z,281.25
2023-03-11T10:37:06.822Z,264.38
2023-03-11T10:38:06.837Z,253.12
2023-03-11T10:39:06.794Z,230.62
2023-03-11T10:40:06.790Z,230.62
2023-03-11T10:41:06.966Z,506.25
2023-03-11T10:42:06.770Z,236.25
2023-03-11T10:43:06.795Z,528.75
2023-03-11T10:44:06.748Z,281.25
2023-03-11T10:45:06.722Z,281.25
2023-03-11T10:46:06.800Z,264.38
2023-03-11T10:47:06.707Z,247.50
2023-03-11T10:50:03.663Z,281.25
2023-03-11T10:51:03.608Z,275.62
2023-03-11T10:52:03.705Z,309.38
2023-03-11T10:53:03.513Z,270.00
2023-03-11T10:54:03.536Z,264.38
2023-03-11T10:55:03.497Z,292.50
2023-03-11T10:56:03.480Z,281.25
2023-03-11T10:57:03.831Z,601.88
2023-03-11T10:58:03.840Z,253.12
2023-03-11T10:59:03.492Z,241.88
2023-03-11T11:00:03.421Z,236.25
2023-03-11T11:01:03.468Z,241.88
2023-03-11T11:02:03.407Z,253.12
2023-03-11T11:03:03.393Z,270.00
2023-03-11T11:04:03.493Z,270.00
2023-03-11T11:05:03.384Z,253.12
2023-03-11T11:06:03.377Z,247.50
2023-03-11T11:07:03.341Z,247.50
2023-03-11T11:08:03.345Z,258.75
2023-03-11T11:09:03.348Z,286.88
2023-03-11T11:10:03.356Z,298.12
2023-03-11T11:11:03.287Z,281.25
2023-03-11T11:12:03.282Z,281.25
2023-03-11T11:13:03.270Z,281.25
2023-03-11T11:14:03.263Z,331.88
2023-03-11T11:15:04.389Z,315.00
2023-03-11T11:16:18.944Z,320.62
2023-03-11T11:17:04.726Z,281.25
2023-03-11T11:18:04.338Z,258.75
2023-03-11T11:19:04.346Z,230.62
2023-03-11T11:20:04.835Z,208.12
2023-03-11T11:21:04.302Z,185.62
2023-03-11T11:22:04.309Z,180.00
2023-03-11T11:23:04.283Z,168.75
2023-03-11T11:24:05.421Z,168.75
2023-03-11T11:25:04.488Z,174.38
2023-03-11T11:26:04.251Z,191.25
2023-03-11T11:27:04.241Z,180.00
2023-03-11T11:28:04.232Z,168.75
2023-03-11T11:29:04.202Z,185.62
2023-03-11T11:30:04.257Z,388.12
2023-03-11T11:31:04.267Z,534.38
2023-03-11T11:32:04.171Z,540.00
2023-03-11T11:33:04.187Z,556.88
2023-03-11T11:34:04.158Z,579.38
2023-03-11T11:35:04.128Z,573.75
2023-03-11T11:36:04.191Z,461.25
2023-03-11T11:37:04.292Z,506.25
2023-03-11T11:38:04.105Z,292.50
2023-03-11T11:39:04.112Z,286.88
2023-03-11T11:40:04.070Z,275.62
2023-03-11T11:41:05.099Z,275.62
2023-03-11T11:42:04.074Z,466.88
2023-03-11T11:43:04.022Z,270.00
2023-03-11T11:44:39.646Z,241.88
2023-03-11T11:45:04.288Z,219.38
2023-03-11T11:46:04.210Z,208.12
2023-03-11T11:47:06.281Z,208.12
2023-03-11T11:48:03.986Z,208.12
2023-03-11T11:49:03.959Z,208.12
2023-03-11T11:50:03.958Z,213.75
2023-03-11T11:51:03.997Z,534.38
2023-03-11T11:52:03.944Z,517.50
2023-03-11T11:53:03.957Z,523.12
2023-03-11T11:54:03.930Z,495.00
2023-03-11T11:55:03.907Z,511.88
2023-03-11T11:56:03.978Z,247.50
2023-03-11T11:57:03.887Z,241.88
2023-03-11T11:58:03.867Z,253.12
2023-03-11T11:59:03.860Z,258.75
2023-03-11T12:00:03.844Z,281.25
2023-03-11T12:01:03.854Z,303.75
2023-03-11T12:02:03.871Z,309.38
2023-03-11T12:03:03.821Z,500.62
2023-03-11T12:04:03.873Z,568.12
2023-03-11T12:05:03.796Z,562.50
2023-03-11T12:06:03.779Z,573.75
2023-03-11T12:07:03.898Z,573.75
2023-03-11T12:08:03.761Z,585.00
2023-03-11T12:09:03.734Z,371.25
2023-03-11T12:10:19.808Z,388.12
2023-03-11T12:11:03.719Z,292.50
2023-03-11T12:12:03.789Z,292.50
2023-03-11T12:13:03.724Z,270.00
2023-03-11T12:14:03.675Z,258.75
2023-03-11T12:15:03.716Z,275.62
2023-03-11T12:16:03.805Z,292.50
2023-03-11T12:17:04.353Z,320.62
2023-03-11T12:18:03.652Z,337.50
2023-03-11T12:19:03.628Z,517.50
2023-03-11T12:20:03.649Z,438.75
2023-03-11T12:21:03.599Z,360.00
2023-03-11T12:22:03.584Z,360.00
2023-03-11T12:23:03.612Z,360.00
2023-03-11T12:24:03.612Z,348.75
2023-03-11T12:25:03.567Z,343.12
2023-03-11T12:26:03.559Z,360.00
2023-03-11T12:27:03.525Z,624.38
2023-03-11T12:28:03.527Z,641.25
2023-03-11T12:29:03.576Z,461.25
2023-03-11T12:30:03.498Z,365.62
2023-03-11T12:31:03.516Z,348.75
2023-03-11T12:32:03.465Z,337.50
2023-03-11T12:33:03.462Z,320.62
2023-03-11T12:34:03.435Z,286.88
2023-03-11T12:35:03.465Z,230.62
2023-03-11T12:36:03.448Z,213.75
2023-03-11T12:37:03.543Z,213.75
2023-03-11T12:38:03.396Z,225.00
2023-03-11T12:39:03.491Z,241.88
2023-03-11T12:40:03.414Z,247.50
2023-03-11T12:41:03.374Z,275.62
2023-03-11T12:42:03.350Z,275.62
2023-03-11T12:43:03.369Z,270.00
2023-03-11T12:44:03.357Z,292.50
2023-03-11T12:45:03.307Z,371.25
2023-03-11T12:46:03.367Z,438.75
2023-03-11T12:47:03.323Z,455.62
2023-03-11T12:48:03.331Z,450.00
2023-03-11T12:49:03.272Z,472.50
2023-03-11T12:50:03.340Z,478.12
2023-03-11T12:51:03.337Z,489.38
2023-03-11T12:52:03.258Z,483.75
2023-03-11T12:53:03.250Z,495.00
2023-03-11T12:54:03.226Z,478.12
2023-03-11T12:55:03.207Z,455.62
2023-03-11T12:56:03.213Z,433.12
2023-03-11T12:57:03.220Z,320.62
2023-03-11T12:58:03.169Z,281.25
2023-03-11T12:59:03.170Z,320.62
2023-03-11T13:00:03.149Z,281.25